createdAt,value
2019-02-27T00:02:27.086Z,99.90
2019-02-27T00:04:56.895Z,99.90
2019-02-27T00:07:26.703Z,99.90
2019-02-27T00:09:56.504Z,99.90
2019-02-27T00:12:26.391Z,99.90
2019-02-27T00:14:56.263Z,99.90
2019-02-27T00:17:26.038Z,99.90
2019-02-27T00:19:55.963Z,99.90
2019-02-27T00:22:25.831Z,99.90
2019-02-27T00:24:56.408Z,99.90
2019-02-27T00:27:26.262Z,99.90
2019-02-27T00:29:56.360Z,99.90
2019-02-27T00:32:26.100Z,99.90
2019-02-27T00:34:55.982Z,99.90
2019-02-27T00:37:25.741Z,99.90
2019-02-27T00:39:55.654Z,99.90
2019-02-27T00:42:33.241Z,99.90
2019-02-27T00:44:56.972Z,99.90
2019-02-27T00:47:27.786Z,99.90
2019-02-27T00:49:57.572Z,99.90
2019-02-27T00:52:27.430Z,99.90
2019-02-27T00:54:57.242Z,99.90
2019-02-27T00:57:27.034Z,99.90
2019-02-27T00:59:56.891Z,99.90
2019-02-27T01:02:27.115Z,99.90
2019-02-27T01:04:57.005Z,99.90
2019-02-27T01:07:26.872Z,99.90
2019-02-27T01:09:56.694Z,99.90
2019-02-27T01:12:26.505Z,99.90
2019-02-27T01:14:56.466Z,99.90
2019-02-27T01:17:26.435Z,99.90
2019-02-27T01:19:56.501Z,99.90
2019-02-27T01:22:26.368Z,99.90
2019-02-27T01:24:56.551Z,99.90
2019-02-27T01:27:26.368Z,99.90
2019-02-27T01:29:56.271Z,99.90
2019-02-27T01:32:28.883Z,99.90
2019-02-27T01:34:58.597Z,99.90
2019-02-27T01:37:31.458Z,99.90
2019-02-27T01:40:00.274Z,99.90
2019-02-27T01:42:32.773Z,99.90
2019-02-27T01:45:01.745Z,99.90
2019-02-27T01:47:35.906Z,99.90
2019-02-27T01:50:03.707Z,99.90
2019-02-27T01:52:34.101Z,99.90
2019-02-27T01:55:04.852Z,99.90
2019-02-27T01:57:36.823Z,99.90
2019-02-27T02:00:07.007Z,99.90
2019-02-27T02:02:37.586Z,99.90
2019-02-27T02:05:08.517Z,99.90
2019-02-27T02:07:40.298Z,99.90
2019-02-27T02:10:10.841Z,99.90
2019-02-27T02:12:41.620Z,99.90
2019-02-27T02:15:27.825Z,99.90
2019-02-27T02:18:30.535Z,99.90
2019-02-27T02:21:03.734Z,99.90
2019-02-27T02:23:49.215Z,99.90
2019-02-27T02:26:28.010Z,99.90
2019-02-27T02:29:09.788Z,99.90
2019-02-27T02:31:42.958Z,99.90
2019-02-27T02:34:30.688Z,99.90
2019-02-27T02:37:21.652Z,99.90
2019-02-27T02:40:06.194Z,99.90
2019-02-27T02:43:03.094Z,99.90
2019-02-27T02:45:34.498Z,99.90
2019-02-27T02:48:22.199Z,99.90
2019-02-27T02:51:00.745Z,99.90
2019-02-27T02:53:42.549Z,99.90
2019-02-27T02:56:24.881Z,99.90
2019-02-27T02:59:24.522Z,99.90
2019-02-27T03:01:53.115Z,99.90
2019-02-27T03:04:47.908Z,99.90
2019-02-27T03:07:24.292Z,99.90
2019-02-27T03:10:08.855Z,99.90
2019-02-27T03:12:47.559Z,99.90
2019-02-27T03:15:36.917Z,99.90
2019-02-27T03:18:15.870Z,99.90
2019-02-27T03:20:57.396Z,99.90
2019-02-27T03:23:57.293Z,99.90
2019-02-27T03:26:41.718Z,99.90
2019-02-27T03:29:39.896Z,99.90
2019-02-27T03:32:24.361Z,99.90
2019-02-27T03:35:06.285Z,99.90
2019-02-27T03:37:53.913Z,99.90
2019-02-27T03:40:29.462Z,99.90
2019-02-27T03:43:10.140Z,99.90
2019-02-27T03:46:03.022Z,99.90
2019-02-27T03:48:36.965Z,99.90
2019-02-27T03:51:13.012Z,99.90
2019-02-27T03:54:11.401Z,99.90
2019-02-27T03:57:19.011Z,99.90
2019-02-27T04:00:06.743Z,99.90
2019-02-27T04:02:45.480Z,99.90
2019-02-27T04:05:33.049Z,99.90
2019-02-27T04:08:29.620Z,99.90
2019-02-27T04:11:05.422Z,99.90
2019-02-27T04:13:30.892Z,99.90
2019-02-27T04:16:00.701Z,99.90
2019-02-27T04:18:29.454Z,99.90
2019-02-27T04:20:59.583Z,99.90
2019-02-27T04:23:29.428Z,99.90
2019-02-27T04:25:59.223Z,99.90
2019-02-27T04:28:29.974Z,99.90
2019-02-27T04:31:00.499Z,99.90
2019-02-27T04:33:30.230Z,99.90
2019-02-27T04:36:00.134Z,99.90
2019-02-27T04:38:30.046Z,99.90
2019-02-27T04:40:59.863Z,99.90
2019-02-27T04:43:31.992Z,99.90
2019-02-27T04:46:01.294Z,99.90
2019-02-27T04:48:31.160Z,99.90
2019-02-27T04:51:01.070Z,99.90
2019-02-27T04:53:31.991Z,99.90
2019-02-27T04:56:02.376Z,99.90
2019-02-27T04:58:32.206Z,99.90
2019-02-27T05:01:02.163Z,99.90
2019-02-27T05:03:33.064Z,99.90
2019-02-27T05:06:03.482Z,99.90
2019-02-27T05:08:33.472Z,99.90
2019-02-27T05:11:03.216Z,99.90
2019-02-27T05:13:34.618Z,99.90
2019-02-27T05:16:04.592Z,99.90
2019-02-27T05:18:34.564Z,99.90
2019-02-27T05:21:04.453Z,99.90
2019-02-27T05:23:34.268Z,99.90
2019-02-27T05:26:04.156Z,99.90
2019-02-27T05:28:34.996Z,99.90
2019-02-27T05:31:05.553Z,99.90
2019-02-27T05:33:36.469Z,99.90
2019-02-27T05:36:06.892Z,99.90
2019-02-27T05:38:36.739Z,99.90
2019-02-27T05:41:06.826Z,99.90
2019-02-27T05:43:36.565Z,99.90
2019-02-27T05:46:06.406Z,99.90
2019-02-27T05:48:36.151Z,99.90
2019-02-27T05:51:07.580Z,99.90
2019-02-27T05:53:37.473Z,99.90
2019-02-27T05:56:07.353Z,99.90
2019-02-27T05:58:37.338Z,99.90
2019-02-27T06:01:07.137Z,99.90
2019-02-27T06:03:37.147Z,99.90
2019-02-27T06:06:11.541Z,99.90
2019-02-27T06:08:38.489Z,99.90
2019-02-27T06:11:08.431Z,99.90
2019-02-27T06:13:38.147Z,99.90
2019-02-27T06:16:09.321Z,99.90
2019-02-27T06:18:39.205Z,99.90
2019-02-27T06:21:09.061Z,99.90
2019-02-27T06:23:38.699Z,99.90
2019-02-27T06:26:08.528Z,99.90
2019-02-27T06:28:38.217Z,99.90
2019-02-27T06:31:07.895Z,99.90
2019-02-27T06:33:37.653Z,99.90
2019-02-27T06:36:07.757Z,99.90
2019-02-27T06:38:38.213Z,99.90
2019-02-27T06:41:08.075Z,99.90
2019-02-27T06:43:38.689Z,99.90
2019-02-27T06:46:08.567Z,99.90
2019-02-27T06:48:38.317Z,99.90
2019-02-27T06:51:08.003Z,99.90
2019-02-27T06:53:37.767Z,99.90
2019-02-27T06:56:07.379Z,99.90
2019-02-27T06:58:37.122Z,99.90
2019-02-27T07:01:09.482Z,99.90
2019-02-27T07:03:38.129Z,99.90
2019-02-27T07:06:07.762Z,99.90
2019-02-27T07:08:38.078Z,99.90
2019-02-27T07:11:10.879Z,99.90
2019-02-27T07:13:39.794Z,99.90
2019-02-27T07:16:09.589Z,99.90
2019-02-27T07:18:41.658Z,99.90
2019-02-27T07:21:10.555Z,99.90
2019-02-27T07:23:40.231Z,99.90
2019-02-27T07:26:10.009Z,99.90
2019-02-27T07:28:43.156Z,99.90
2019-02-27T07:31:12.491Z,99.90
2019-02-27T07:33:43.262Z,99.90
2019-02-27T07:36:13.931Z,99.90
2019-02-27T07:38:43.663Z,99.90
2019-02-27T07:41:17.553Z,99.90
2019-02-27T07:43:44.941Z,99.90
2019-02-27T07:46:14.922Z,99.90
2019-02-27T07:48:44.520Z,99.90
2019-02-27T07:51:14.251Z,99.90
2019-02-27T07:53:43.851Z,99.90
2019-02-27T07:56:13.638Z,99.90
2019-02-27T07:58:43.299Z,99.90
2019-02-27T08:01:13.071Z,99.90
2019-02-27T08:03:44.668Z,99.90
2019-02-27T08:06:14.078Z,99.90
2019-02-27T08:08:44.883Z,99.90
2019-02-27T08:11:14.498Z,99.90
2019-02-27T08:13:44.172Z,99.90
2019-02-27T08:16:14.840Z,99.90
2019-02-27T08:18:44.557Z,99.90
2019-02-27T08:21:15.117Z,99.90
2019-02-27T08:23:44.863Z,99.90
2019-02-27T08:26:14.529Z,99.90
2019-02-27T08:28:44.166Z,99.90
2019-02-27T08:31:13.893Z,99.90
2019-02-27T08:33:43.513Z,99.90
2019-02-27T08:36:13.249Z,99.90
2019-02-27T08:38:42.949Z,99.90
2019-02-27T08:41:12.689Z,99.90
2019-02-27T08:43:42.340Z,99.90
2019-02-27T08:46:12.221Z,99.90
2019-02-27T08:48:41.954Z,99.90
2019-02-27T08:51:11.641Z,99.90
2019-02-27T08:53:41.359Z,99.90
2019-02-27T08:56:12.433Z,99.90
2019-02-27T08:58:42.959Z,99.90
2019-02-27T09:01:12.685Z,99.90
2019-02-27T09:03:42.296Z,99.90
2019-02-27T09:06:11.970Z,99.90
2019-02-27T09:08:44.063Z,99.90
2019-02-27T09:11:14.740Z,99.90
2019-02-27T09:13:44.708Z,99.90
2019-02-27T09:16:14.364Z,99.90
2019-02-27T09:18:44.271Z,99.90
2019-02-27T09:21:14.111Z,99.90
2019-02-27T09:23:43.864Z,99.90
2019-02-27T09:26:13.507Z,99.90
2019-02-27T09:28:44.507Z,99.90
2019-02-27T09:31:14.790Z,99.90
2019-02-27T09:33:44.603Z,99.90
2019-02-27T09:36:14.264Z,99.90
2019-02-27T09:38:45.203Z,99.90
2019-02-27T09:41:15.171Z,99.90
2019-02-27T09:43:45.915Z,99.90
2019-02-27T09:46:19.278Z,99.90
2019-02-27T09:48:48.114Z,99.90
2019-02-27T09:51:19.163Z,99.90
2019-02-27T09:53:49.332Z,99.90
2019-02-27T09:56:19.257Z,99.90
2019-02-27T09:58:48.951Z,99.90
2019-02-27T10:01:18.701Z,99.90
2019-02-27T10:03:48.443Z,99.90
2019-02-27T10:06:18.109Z,99.90
2019-02-27T10:08:47.786Z,99.90
2019-02-27T10:11:19.566Z,99.90
2019-02-27T10:13:48.912Z,99.90
2019-02-27T10:16:19.480Z,99.90
2019-02-27T10:18:49.203Z,99.90
2019-02-27T10:21:18.936Z,99.90
2019-02-27T10:23:48.957Z,99.90
2019-02-27T10:26:19.411Z,99.90
2019-02-27T10:28:50.145Z,99.90
2019-02-27T10:31:19.753Z,99.90
2019-02-27T10:33:50.437Z,99.90
2019-02-27T10:36:20.156Z,99.90
2019-02-27T10:38:50.208Z,99.90
2019-02-27T10:41:19.959Z,99.90
2019-02-27T10:43:49.652Z,99.90
2019-02-27T10:46:23.435Z,99.90
2019-02-27T10:48:51.678Z,99.90
2019-02-27T10:51:21.272Z,99.90
2019-02-27T10:53:50.976Z,99.90
2019-02-27T10:56:21.627Z,99.90
2019-02-27T10:58:51.888Z,99.90
2019-02-27T11:01:21.576Z,99.90
2019-02-27T11:03:52.196Z,99.90
2019-02-27T11:06:21.966Z,99.90
2019-02-27T11:08:51.758Z,99.90
2019-02-27T11:11:21.881Z,99.90
2019-02-27T11:13:53.326Z,99.90
2019-02-27T11:16:23.131Z,99.90
2019-02-27T11:18:52.838Z,99.90
2019-02-27T11:21:22.591Z,99.90
2019-02-27T11:23:53.328Z,99.90
2019-02-27T11:26:22.925Z,99.90
2019-02-27T11:28:52.725Z,99.90
2019-02-27T11:31:22.470Z,99.90
2019-02-27T11:33:52.251Z,99.90
2019-02-27T11:36:21.846Z,99.90
2019-02-27T11:38:51.496Z,99.90
2019-02-27T11:41:21.314Z,99.90
2019-02-27T11:43:52.699Z,99.90
2019-02-27T11:46:22.583Z,99.90
2019-02-27T11:48:52.183Z,99.90
2019-02-27T11:51:22.046Z,99.90
2019-02-27T11:53:51.783Z,99.90
2019-02-27T11:56:21.777Z,99.90
2019-02-27T11:58:51.387Z,99.90
2019-02-27T12:01:22.116Z,99.90
2019-02-27T12:03:52.459Z,99.90
2019-02-27T12:06:22.259Z,99.90
2019-02-27T12:08:52.035Z,99.90
2019-02-27T12:11:21.849Z,99.90
2019-02-27T12:13:51.597Z,98.40
2019-02-27T12:16:21.283Z,96.10
2019-02-27T12:18:50.941Z,93.30
2019-02-27T12:21:20.623Z,89.20
2019-02-27T12:23:50.475Z,86.60
2019-02-27T12:26:20.149Z,90.80
2019-02-27T12:28:52.500Z,89.70
2019-02-27T12:31:21.314Z,90.00
2019-02-27T12:33:51.115Z,77.80
2019-02-27T12:36:20.796Z,80.60
2019-02-27T12:38:50.560Z,71.00
2019-02-27T12:41:20.344Z,68.40
2019-02-27T12:43:52.553Z,71.40
2019-02-27T12:46:21.562Z,67.20
2019-02-27T12:48:51.347Z,68.90
2019-02-27T12:51:21.113Z,64.40
2019-02-27T12:53:54.400Z,66.70
2019-02-27T12:56:22.192Z,68.70
2019-02-27T12:58:51.815Z,67.00
2019-02-27T13:01:21.752Z,68.10
2019-02-27T13:03:52.466Z,68.70
2019-02-27T13:06:22.143Z,69.80
2019-02-27T13:08:52.884Z,63.10
2019-02-27T13:11:23.146Z,66.60
2019-02-27T13:13:52.786Z,65.50
2019-02-27T13:16:22.640Z,68.10
2019-02-27T13:18:52.356Z,63.10
2019-02-27T13:21:22.062Z,65.00
2019-02-27T13:23:52.614Z,65.60
2019-02-27T13:26:22.335Z,65.70
2019-02-27T13:28:52.946Z,64.80
2019-02-27T13:31:23.699Z,62.70
2019-02-27T13:33:54.353Z,63.50
2019-02-27T13:36:24.140Z,61.30
2019-02-27T13:38:53.887Z,61.10
2019-02-27T13:41:23.868Z,61.20
2019-02-27T13:43:55.045Z,61.20
2019-02-27T13:46:24.802Z,63.30
2019-02-27T13:48:54.537Z,61.20
2019-02-27T13:51:24.369Z,64.80
2019-02-27T13:53:54.043Z,61.60
2019-02-27T13:56:25.117Z,62.00
2019-02-27T13:58:56.112Z,60.50
2019-02-27T14:01:28.472Z,56.60
2019-02-27T14:03:58.437Z,59.40
2019-02-27T14:06:28.139Z,62.30
2019-02-27T14:08:57.761Z,55.00
2019-02-27T14:11:27.921Z,58.70
2019-02-27T14:13:57.649Z,57.70
2019-02-27T14:16:27.450Z,59.50
2019-02-27T14:18:57.124Z,57.60
2019-02-27T14:21:26.847Z,58.80
2019-02-27T14:23:56.576Z,64.00
2019-02-27T14:26:26.321Z,63.00
2019-02-27T14:28:56.099Z,68.40
2019-02-27T14:31:25.852Z,62.80
2019-02-27T14:33:56.429Z,60.10
2019-02-27T14:36:26.405Z,62.90
2019-02-27T14:38:56.788Z,62.40
2019-02-27T14:41:26.538Z,62.00
2019-02-27T14:43:57.633Z,59.70
2019-02-27T14:46:27.837Z,57.80
2019-02-27T14:48:58.450Z,58.00
2019-02-27T14:51:28.190Z,61.10
2019-02-27T14:53:57.909Z,59.70
2019-02-27T14:56:27.674Z,58.40
2019-02-27T14:58:57.587Z,60.00
2019-02-27T15:01:27.312Z,60.70
2019-02-27T15:04:00.379Z,63.30
2019-02-27T15:06:28.763Z,62.40
2019-02-27T15:09:03.281Z,60.20
2019-02-27T15:11:31.133Z,62.20
2019-02-27T15:14:01.087Z,58.20
2019-02-27T15:16:30.695Z,59.00
2019-02-27T15:19:01.375Z,60.10
2019-02-27T15:21:31.953Z,60.60
2019-02-27T15:24:02.158Z,59.80
2019-02-27T15:26:31.913Z,58.30
2019-02-27T15:29:03.168Z,60.50
2019-02-27T15:31:34.671Z,59.40
2019-02-27T15:34:04.435Z,59.40
2019-02-27T15:36:35.041Z,60.00
2019-02-27T15:39:07.830Z,58.80
2019-02-27T15:41:37.485Z,59.20
2019-02-27T15:44:07.225Z,59.70
2019-02-27T15:46:36.999Z,59.40
2019-02-27T15:49:06.745Z,59.80
2019-02-27T15:51:36.442Z,60.50
2019-02-27T15:54:06.144Z,61.70
2019-02-27T15:56:35.860Z,61.30
2019-02-27T15:59:08.074Z,62.60
2019-02-27T16:01:37.114Z,63.70
2019-02-27T16:04:06.855Z,64.70
2019-02-27T16:06:37.044Z,64.20
2019-02-27T16:09:09.169Z,65.00
2019-02-27T16:11:38.881Z,64.20
2019-02-27T16:14:10.131Z,64.30
2019-02-27T16:16:42.132Z,64.60
2019-02-27T16:19:11.782Z,64.00
2019-02-27T16:21:41.629Z,64.60
2019-02-27T16:24:11.318Z,66.10
2019-02-27T16:26:41.034Z,66.10
2019-02-27T16:29:10.762Z,67.00
2019-02-27T16:31:40.878Z,68.60
2019-02-27T16:34:10.568Z,69.90
2019-02-27T16:36:41.392Z,69.00
2019-02-27T16:39:11.323Z,69.60
2019-02-27T16:41:40.938Z,68.40
2019-02-27T16:44:11.173Z,70.30
2019-02-27T16:46:44.696Z,71.30
2019-02-27T16:49:13.396Z,72.50
2019-02-27T16:51:44.935Z,73.60
2019-02-27T16:54:14.723Z,73.60
2019-02-27T16:56:47.603Z,72.40
2019-02-27T16:59:15.823Z,73.90
2019-02-27T17:01:45.660Z,74.50
2019-02-27T17:04:15.256Z,75.30
2019-02-27T17:06:44.875Z,74.80
2019-02-27T17:09:14.649Z,74.40
2019-02-27T17:11:44.255Z,74.80
2019-02-27T17:14:13.867Z,75.70
2019-02-27T17:16:44.928Z,75.60
2019-02-27T17:19:15.052Z,75.50
2019-02-27T17:21:44.762Z,75.80
2019-02-27T17:24:14.583Z,75.70
2019-02-27T17:26:46.408Z,76.20
2019-02-27T17:29:15.533Z,76.40
2019-02-27T17:31:49.330Z,78.60
2019-02-27T17:34:16.604Z,78.80
2019-02-27T17:36:46.355Z,79.40
2019-02-27T17:40:19.817Z,80.10
2019-02-27T17:42:53.008Z,83.10
2019-02-27T17:45:26.220Z,83.40
2019-02-27T17:51:56.950Z,83.80
2019-02-27T17:58:31.887Z,83.20
2019-02-27T18:01:58.447Z,82.40
2019-02-27T18:08:26.239Z,81.60
2019-02-27T18:14:57.001Z,80.70
2019-02-27T18:18:21.282Z,79.50
2019-02-27T18:24:52.213Z,80.20
2019-02-27T18:31:26.654Z,80.40
2019-02-27T18:37:55.450Z,79.50
2019-02-27T18:40:25.292Z,80.20
2019-02-27T18:46:58.843Z,81.10
2019-02-27T18:53:32.141Z,82.40
2019-02-27T19:00:02.475Z,84.50
2019-02-27T19:03:27.028Z,82.80
2019-02-27T19:09:57.746Z,83.60
2019-02-27T19:13:21.914Z,82.60
2019-02-27T19:19:53.034Z,82.60
2019-02-27T19:26:23.638Z,82.70
2019-02-27T19:32:58.300Z,84.40
2019-02-27T19:39:27.005Z,82.00
2019-02-27T19:41:56.942Z,82.40
2019-02-27T19:48:28.935Z,82.50
2019-02-27T19:54:59.953Z,84.50
2019-02-27T19:58:24.347Z,83.80
2019-02-27T20:04:56.582Z,85.20
2019-02-27T20:08:20.996Z,85.40
2019-02-27T20:14:52.061Z,86.20
2019-02-27T20:21:22.748Z,90.80
2019-02-27T20:24:47.160Z,89.80
2019-02-27T20:31:20.987Z,88.80
2019-02-27T20:34:46.543Z,85.50
2019-02-27T20:41:17.198Z,87.90
2019-02-27T20:47:48.941Z,86.30
2019-02-27T20:54:19.820Z,88.10
2019-02-27T21:00:51.922Z,90.00
2019-02-27T21:04:16.349Z,90.40
2019-02-27T21:10:47.286Z,91.00
2019-02-27T21:17:20.876Z,92.00
2019-02-27T21:23:50.345Z,93.30
2019-02-27T21:30:22.841Z,93.70
2019-02-27T21:33:47.428Z,94.70
2019-02-27T21:40:18.764Z,93.20
2019-02-27T21:42:50.735Z,93.40
2019-02-27T21:49:20.997Z,94.40
2019-02-27T21:55:51.828Z,92.90
2019-02-27T21:59:16.303Z,93.00
2019-02-27T22:05:52.579Z,92.50
2019-02-27T22:09:14.618Z,92.80
2019-02-27T22:15:45.548Z,92.40
2019-02-27T22:19:09.859Z,92.90
2019-02-27T22:25:40.220Z,92.00
2019-02-27T22:29:04.758Z,90.10
2019-02-27T22:35:37.945Z,84.60
2019-02-27T22:39:02.143Z,85.70
2019-02-27T22:45:36.131Z,88.00
2019-02-27T22:52:05.139Z,91.10
2019-02-27T22:55:29.646Z,91.20
2019-02-27T23:02:00.850Z,90.00
2019-02-27T23:05:25.430Z,91.20
2019-02-27T23:11:56.720Z,90.00
2019-02-27T23:15:21.408Z,90.80
2019-02-27T23:21:51.891Z,90.90
2019-02-27T23:28:22.751Z,94.50
2019-02-27T23:31:47.863Z,92.10
2019-02-27T23:38:18.492Z,94.00
2019-02-27T23:41:43.068Z,91.90
2019-02-27T23:48:14.188Z,94.20
2019-02-27T23:54:45.362Z,93.10
